sensor_id;sensor_type;location;lat;lon;timestamp;temperature;humidity
71837;DHT22;59686;51.716;7.016;2024-03-02T00:01:42;11.00;94.80
71837;DHT22;59686;51.716;7.016;2024-03-02T00:04:08;10.90;94.70
71837;DHT22;59686;51.716;7.016;2024-03-02T00:06:34;11.00;95.10
71837;DHT22;59686;51.716;7.016;2024-03-02T00:09:00;10.90;94.80
71837;DHT22;59686;51.716;7.016;2024-03-02T00:11:25;10.90;94.90
71837;DHT22;59686;51.716;7.016;2024-03-02T00:13:53;10.90;94.70
71837;DHT22;59686;51.716;7.016;2024-03-02T00:16:19;10.90;94.80
71837;DHT22;59686;51.716;7.016;2024-03-02T00:18:45;10.90;94.90
71837;DHT22;59686;51.716;7.016;2024-03-02T00:21:12;10.90;94.80
71837;DHT22;59686;51.716;7.016;2024-03-02T00:23:40;10.90;94.80
71837;DHT22;59686;51.716;7.016;2024-03-02T00:26:06;10.90;94.80
71837;DHT22;59686;51.716;7.016;2024-03-02T00:28:32;10.90;94.90
71837;DHT22;59686;51.716;7.016;2024-03-02T00:31:05;10.90;95.10
71837;DHT22;59686;51.716;7.016;2024-03-02T00:33:51;10.90;95.00
71837;DHT22;59686;51.716;7.016;2024-03-02T00:36:27;10.90;95.00
71837;DHT22;59686;51.716;7.016;2024-03-02T00:38:54;10.80;94.90
71837;DHT22;59686;51.716;7.016;2024-03-02T00:41:27;10.90;94.80
71837;DHT22;59686;51.716;7.016;2024-03-02T00:44:04;10.90;94.90
71837;DHT22;59686;51.716;7.016;2024-03-02T00:46:37;10.90;95.00
71837;DHT22;59686;51.716;7.016;2024-03-02T00:49:05;10.90;94.80
71837;DHT22;59686;51.716;7.016;2024-03-02T00:51:32;10.90;95.00
71837;DHT22;59686;51.716;7.016;2024-03-02T00:54:07;10.90;94.90
71837;DHT22;59686;51.716;7.016;2024-03-02T00:56:33;10.90;94.90
71837;DHT22;59686;51.716;7.016;2024-03-02T00:59:00;10.90;94.90
71837;DHT22;59686;51.716;7.016;2024-03-02T01:01:26;10.90;94.90
71837;DHT22;59686;51.716;7.016;2024-03-02T01:03:52;10.90;94.80
71837;DHT22;59686;51.716;7.016;2024-03-02T01:06:18;10.90;94.90
71837;DHT22;59686;51.716;7.016;2024-03-02T01:08:44;10.90;95.20
71837;DHT22;59686;51.716;7.016;2024-03-02T01:11:11;10.90;95.00
71837;DHT22;59686;51.716;7.016;2024-03-02T01:13:37;10.90;95.10
71837;DHT22;59686;51.716;7.016;2024-03-02T01:16:03;10.90;95.00
71837;DHT22;59686;51.716;7.016;2024-03-02T01:18:29;10.90;94.90
71837;DHT22;59686;51.716;7.016;2024-03-02T01:20:56;10.90;95.00
71837;DHT22;59686;51.716;7.016;2024-03-02T01:23:23;10.90;95.20
71837;DHT22;59686;51.716;7.016;2024-03-02T01:25:49;10.90;95.20
71837;DHT22;59686;51.716;7.016;2024-03-02T01:28:15;10.80;95.10
71837;DHT22;59686;51.716;7.016;2024-03-02T01:30:41;10.90;95.10
71837;DHT22;59686;51.716;7.016;2024-03-02T01:33:06;10.90;95.10
71837;DHT22;59686;51.716;7.016;2024-03-02T01:35:32;10.90;95.20
71837;DHT22;59686;51.716;7.016;2024-03-02T01:37:58;10.80;95.10
71837;DHT22;59686;51.716;7.016;2024-03-02T01:40:24;10.90;95.30
71837;DHT22;59686;51.716;7.016;2024-03-02T01:42:52;10.80;95.30
71837;DHT22;59686;51.716;7.016;2024-03-02T01:45:19;10.90;95.40
71837;DHT22;59686;51.716;7.016;2024-03-02T01:47:45;10.90;95.30
71837;DHT22;59686;51.716;7.016;2024-03-02T01:50:14;10.80;95.40
71837;DHT22;59686;51.716;7.016;2024-03-02T01:52:40;10.80;95.30
71837;DHT22;59686;51.716;7.016;2024-03-02T01:55:06;10.80;95.20
71837;DHT22;59686;51.716;7.016;2024-03-02T01:57:34;10.80;95.10
71837;DHT22;59686;51.716;7.016;2024-03-02T02:00:00;10.80;95.10
71837;DHT22;59686;51.716;7.016;2024-03-02T02:02:26;10.80;95.20
71837;DHT22;59686;51.716;7.016;2024-03-02T02:04:52;10.80;95.10
71837;DHT22;59686;51.716;7.016;2024-03-02T02:07:17;10.80;95.10
71837;DHT22;59686;51.716;7.016;2024-03-02T02:09:43;10.70;95.10
71837;DHT22;59686;51.716;7.016;2024-03-02T02:12:10;10.80;95.30
71837;DHT22;59686;51.716;7.016;2024-03-02T02:14:36;10.70;95.20
71837;DHT22;59686;51.716;7.016;2024-03-02T02:17:02;10.80;95.20
71837;DHT22;59686;51.716;7.016;2024-03-02T02:19:28;10.80;95.10
71837;DHT22;59686;51.716;7.016;2024-03-02T02:21:54;10.80;95.40
71837;DHT22;59686;51.716;7.016;2024-03-02T02:24:20;10.80;95.00
71837;DHT22;59686;51.716;7.016;2024-03-02T02:26:45;10.80;95.30
71837;DHT22;59686;51.716;7.016;2024-03-02T02:29:11;10.90;95.40
71837;DHT22;59686;51.716;7.016;2024-03-02T02:31:40;10.80;95.20
71837;DHT22;59686;51.716;7.016;2024-03-02T02:34:06;10.80;95.40
71837;DHT22;59686;51.716;7.016;2024-03-02T02:36:33;10.80;95.20
71837;DHT22;59686;51.716;7.016;2024-03-02T02:39:02;10.80;95.10
71837;DHT22;59686;51.716;7.016;2024-03-02T02:41:32;10.80;95.10
71837;DHT22;59686;51.716;7.016;2024-03-02T02:43:58;10.80;95.20
71837;DHT22;59686;51.716;7.016;2024-03-02T02:46:24;10.80;95.00
71837;DHT22;59686;51.716;7.016;2024-03-02T02:48:49;10.80;95.20
71837;DHT22;59686;51.716;7.016;2024-03-02T02:51:17;10.70;95.10
71837;DHT22;59686;51.716;7.016;2024-03-02T02:53:42;10.80;95.20
71837;DHT22;59686;51.716;7.016;2024-03-02T02:56:09;10.80;95.20
71837;DHT22;59686;51.716;7.016;2024-03-02T02:58:35;10.80;95.30
71837;DHT22;59686;51.716;7.016;2024-03-02T03:01:01;10.70;95.20
71837;DHT22;59686;51.716;7.016;2024-03-02T03:03:27;10.80;95.10
71837;DHT22;59686;51.716;7.016;2024-03-02T03:05:52;10.70;95.00
71837;DHT22;59686;51.716;7.016;2024-03-02T03:08:18;10.80;95.10
71837;DHT22;59686;51.716;7.016;2024-03-02T03:10:44;10.70;95.00
71837;DHT22;59686;51.716;7.016;2024-03-02T03:13:10;10.80;95.10
71837;DHT22;59686;51.716;7.016;2024-03-02T03:15:35;10.70;95.00
71837;DHT22;59686;51.716;7.016;2024-03-02T03:18:04;10.70;95.00
71837;DHT22;59686;51.716;7.016;2024-03-02T03:20:30;10.80;95.10
71837;DHT22;59686;51.716;7.016;2024-03-02T03:22:56;10.70;95.10
71837;DHT22;59686;51.716;7.016;2024-03-02T03:25:22;10.80;95.10
71837;DHT22;59686;51.716;7.016;2024-03-02T03:27:48;10.70;95.00
71837;DHT22;59686;51.716;7.016;2024-03-02T03:30:14;10.70;95.20
71837;DHT22;59686;51.716;7.016;2024-03-02T03:32:40;10.70;95.20
71837;DHT22;59686;51.716;7.016;2024-03-02T03:35:06;10.70;95.20
71837;DHT22;59686;51.716;7.016;2024-03-02T03:37:32;10.70;95.20
71837;DHT22;59686;51.716;7.016;2024-03-02T03:39:59;10.80;95.20
71837;DHT22;59686;51.716;7.016;2024-03-02T03:42:25;10.70;95.00
71837;DHT22;59686;51.716;7.016;2024-03-02T03:44:51;10.80;95.20
71837;DHT22;59686;51.716;7.016;2024-03-02T03:47:17;10.70;95.10
71837;DHT22;59686;51.716;7.016;2024-03-02T03:49:42;10.70;95.00
71837;DHT22;59686;51.716;7.016;2024-03-02T03:52:08;10.70;94.90
71837;DHT22;59686;51.716;7.016;2024-03-02T03:54:34;10.70;95.10
71837;DHT22;59686;51.716;7.016;2024-03-02T03:56:59;10.70;95.10
71837;DHT22;59686;51.716;7.016;2024-03-02T03:59:25;10.70;95.10
71837;DHT22;59686;51.716;7.016;2024-03-02T04:01:51;10.70;95.20
71837;DHT22;59686;51.716;7.016;2024-03-02T04:04:16;10.70;95.00
71837;DHT22;59686;51.716;7.016;2024-03-02T04:06:42;10.70;95.10
71837;DHT22;59686;51.716;7.016;2024-03-02T04:09:08;10.70;95.20
71837;DHT22;59686;51.716;7.016;2024-03-02T04:11:34;10.70;95.20
71837;DHT22;59686;51.716;7.016;2024-03-02T04:13:59;10.70;95.20
71837;DHT22;59686;51.716;7.016;2024-03-02T04:16:25;10.70;95.20
71837;DHT22;59686;51.716;7.016;2024-03-02T04:18:50;10.70;95.10
71837;DHT22;59686;51.716;7.016;2024-03-02T04:21:16;10.70;95.20
71837;DHT22;59686;51.716;7.016;2024-03-02T04:23:42;10.70;95.20
71837;DHT22;59686;51.716;7.016;2024-03-02T04:26:07;10.70;95.20
71837;DHT22;59686;51.716;7.016;2024-03-02T04:28:33;10.70;95.30
71837;DHT22;59686;51.716;7.016;2024-03-02T04:30:59;10.80;95.30
71837;DHT22;59686;51.716;7.016;2024-03-02T04:33:24;10.80;95.20
71837;DHT22;59686;51.716;7.016;2024-03-02T04:35:50;10.70;95.20
71837;DHT22;59686;51.716;7.016;2024-03-02T04:38:16;10.70;95.20
71837;DHT22;59686;51.716;7.016;2024-03-02T04:40:41;10.70;95.30
71837;DHT22;59686;51.716;7.016;2024-03-02T04:43:07;10.70;95.20
71837;DHT22;59686;51.716;7.016;2024-03-02T04:45:35;10.70;95.40
71837;DHT22;59686;51.716;7.016;2024-03-02T04:48:01;10.70;95.30
71837;DHT22;59686;51.716;7.016;2024-03-02T04:50:27;10.60;95.40
71837;DHT22;59686;51.716;7.016;2024-03-02T04:52:52;10.60;95.40
71837;DHT22;59686;51.716;7.016;2024-03-02T04:55:18;10.70;95.50
71837;DHT22;59686;51.716;7.016;2024-03-02T04:57:52;10.60;95.50
71837;DHT22;59686;51.716;7.016;2024-03-02T05:00:20;10.60;95.60
71837;DHT22;59686;51.716;7.016;2024-03-02T05:02:46;10.60;95.60
71837;DHT22;59686;51.716;7.016;2024-03-02T05:05:12;10.60;95.50
71837;DHT22;59686;51.716;7.016;2024-03-02T05:07:38;10.60;95.50
71837;DHT22;59686;51.716;7.016;2024-03-02T05:10:03;10.60;95.60
71837;DHT22;59686;51.716;7.016;2024-03-02T05:12:29;10.60;95.60
71837;DHT22;59686;51.716;7.016;2024-03-02T05:15:11;10.60;95.50
71837;DHT22;59686;51.716;7.016;2024-03-02T05:17:37;10.60;95.50
71837;DHT22;59686;51.716;7.016;2024-03-02T05:20:07;10.60;95.40
71837;DHT22;59686;51.716;7.016;2024-03-02T05:22:37;10.60;95.50
71837;DHT22;59686;51.716;7.016;2024-03-02T05:25:06;10.60;95.40
71837;DHT22;59686;51.716;7.016;2024-03-02T05:27:32;10.60;95.50
71837;DHT22;59686;51.716;7.016;2024-03-02T05:29:59;10.60;95.50
71837;DHT22;59686;51.716;7.016;2024-03-02T05:32:24;10.60;95.50
71837;DHT22;59686;51.716;7.016;2024-03-02T05:34:50;10.60;95.50
71837;DHT22;59686;51.716;7.016;2024-03-02T05:37:16;10.60;95.60
71837;DHT22;59686;51.716;7.016;2024-03-02T05:39:42;10.60;95.70
71837;DHT22;59686;51.716;7.016;2024-03-02T05:42:11;10.70;95.70
71837;DHT22;59686;51.716;7.016;2024-03-02T05:44:36;10.60;95.70
71837;DHT22;59686;51.716;7.016;2024-03-02T05:47:02;10.60;95.80
71837;DHT22;59686;51.716;7.016;2024-03-02T05:49:29;10.60;95.90
71837;DHT22;59686;51.716;7.016;2024-03-02T05:51:55;10.60;95.90
71837;DHT22;59686;51.716;7.016;2024-03-02T05:54:21;10.60;96.00
71837;DHT22;59686;51.716;7.016;2024-03-02T05:56:46;10.60;96.00
71837;DHT22;59686;51.716;7.016;2024-03-02T05:59:12;10.60;96.00
71837;DHT22;59686;51.716;7.016;2024-03-02T06:01:45;10.60;96.10
71837;DHT22;59686;51.716;7.016;2024-03-02T06:04:13;10.60;96.10
71837;DHT22;59686;51.716;7.016;2024-03-02T06:06:42;10.50;96.00
71837;DHT22;59686;51.716;7.016;2024-03-02T06:09:08;10.50;96.00
71837;DHT22;59686;51.716;7.016;2024-03-02T06:11:37;10.50;96.00
71837;DHT22;59686;51.716;7.016;2024-03-02T06:14:04;10.50;96.10
71837;DHT22;59686;51.716;7.016;2024-03-02T06:16:30;10.60;96.10
71837;DHT22;59686;51.716;7.016;2024-03-02T06:18:56;10.50;96.10
71837;DHT22;59686;51.716;7.016;2024-03-02T06:21:24;10.50;96.00
71837;DHT22;59686;51.716;7.016;2024-03-02T06:23:49;10.50;96.00
71837;DHT22;59686;51.716;7.016;2024-03-02T06:26:15;10.50;96.10
71837;DHT22;59686;51.716;7.016;2024-03-02T06:28:41;10.50;96.40
71837;DHT22;59686;51.716;7.016;2024-03-02T06:31:06;10.50;96.10
71837;DHT22;59686;51.716;7.016;2024-03-02T06:33:32;10.60;96.20
71837;DHT22;59686;51.716;7.016;2024-03-02T06:35:58;10.50;96.10
71837;DHT22;59686;51.716;7.016;2024-03-02T06:38:23;10.50;96.20
71837;DHT22;59686;51.716;7.016;2024-03-02T06:40:49;10.50;96.20
71837;DHT22;59686;51.716;7.016;2024-03-02T06:43:15;10.50;96.20
71837;DHT22;59686;51.716;7.016;2024-03-02T06:45:40;10.50;96.20
71837;DHT22;59686;51.716;7.016;2024-03-02T06:48:06;10.50;96.20
71837;DHT22;59686;51.716;7.016;2024-03-02T06:50:32;10.50;96.10
71837;DHT22;59686;51.716;7.016;2024-03-02T06:52:58;10.50;96.10
71837;DHT22;59686;51.716;7.016;2024-03-02T06:55:24;10.50;96.20
71837;DHT22;59686;51.716;7.016;2024-03-02T06:57:52;10.50;96.30
71837;DHT22;59686;51.716;7.016;2024-03-02T07:00:19;10.60;96.20
71837;DHT22;59686;51.716;7.016;2024-03-02T07:02:46;10.50;96.20
71837;DHT22;59686;51.716;7.016;2024-03-02T07:05:12;10.50;96.00
71837;DHT22;59686;51.716;7.016;2024-03-02T07:07:38;10.50;96.10
71837;DHT22;59686;51.716;7.016;2024-03-02T07:10:04;10.60;96.10
71837;DHT22;59686;51.716;7.016;2024-03-02T07:12:30;10.50;96.00
71837;DHT22;59686;51.716;7.016;2024-03-02T07:14:57;10.50;96.00
71837;DHT22;59686;51.716;7.016;2024-03-02T07:17:29;10.50;95.90
71837;DHT22;59686;51.716;7.016;2024-03-02T07:19:54;10.50;96.00
71837;DHT22;59686;51.716;7.016;2024-03-02T07:22:20;10.50;95.70
71837;DHT22;59686;51.716;7.016;2024-03-02T07:24:47;10.50;95.60
71837;DHT22;59686;51.716;7.016;2024-03-02T07:27:13;10.40;95.70
71837;DHT22;59686;51.716;7.016;2024-03-02T07:29:40;10.60;95.80
71837;DHT22;59686;51.716;7.016;2024-03-02T07:32:06;10.60;95.70
71837;DHT22;59686;51.716;7.016;2024-03-02T07:34:32;10.50;95.50
71837;DHT22;59686;51.716;7.016;2024-03-02T07:36:58;10.50;95.60
71837;DHT22;59686;51.716;7.016;2024-03-02T07:39:24;10.50;95.60
71837;DHT22;59686;51.716;7.016;2024-03-02T07:41:49;10.60;95.70
71837;DHT22;59686;51.716;7.016;2024-03-02T07:44:15;10.50;95.60
71837;DHT22;59686;51.716;7.016;2024-03-02T07:46:50;10.50;95.60
71837;DHT22;59686;51.716;7.016;2024-03-02T07:49:16;10.50;95.70
71837;DHT22;59686;51.716;7.016;2024-03-02T07:51:42;10.50;95.60
71837;DHT22;59686;51.716;7.016;2024-03-02T07:54:08;10.60;95.70
71837;DHT22;59686;51.716;7.016;2024-03-02T07:56:35;10.40;95.50
71837;DHT22;59686;51.716;7.016;2024-03-02T07:59:01;10.50;95.60
71837;DHT22;59686;51.716;7.016;2024-03-02T08:01:33;10.40;95.60
71837;DHT22;59686;51.716;7.016;2024-03-02T08:04:00;10.50;95.70
71837;DHT22;59686;51.716;7.016;2024-03-02T08:06:27;10.50;95.70
71837;DHT22;59686;51.716;7.016;2024-03-02T08:09:00;10.50;95.80
71837;DHT22;59686;51.716;7.016;2024-03-02T08:11:26;10.50;95.90
71837;DHT22;59686;51.716;7.016;2024-03-02T08:13:52;10.40;95.90
71837;DHT22;59686;51.716;7.016;2024-03-02T08:16:21;10.50;96.20
71837;DHT22;59686;51.716;7.016;2024-03-02T08:18:50;10.50;96.00
71837;DHT22;59686;51.716;7.016;2024-03-02T08:21:16;10.50;96.00
71837;DHT22;59686;51.716;7.016;2024-03-02T08:23:43;10.50;95.90
71837;DHT22;59686;51.716;7.016;2024-03-02T08:26:09;10.60;96.00
71837;DHT22;59686;51.716;7.016;2024-03-02T08:28:35;10.60;96.10
71837;DHT22;59686;51.716;7.016;2024-03-02T08:31:03;10.60;96.00
71837;DHT22;59686;51.716;7.016;2024-03-02T08:33:29;10.60;96.00
71837;DHT22;59686;51.716;7.016;2024-03-02T08:35:55;10.70;96.00
71837;DHT22;59686;51.716;7.016;2024-03-02T08:38:20;10.60;96.00
71837;DHT22;59686;51.716;7.016;2024-03-02T08:40:46;10.60;96.30
71837;DHT22;59686;51.716;7.016;2024-03-02T08:43:12;10.60;95.30
71837;DHT22;59686;51.716;7.016;2024-03-02T08:45:38;10.60;94.40
71837;DHT22;59686;51.716;7.016;2024-03-02T08:48:07;10.50;94.30
71837;DHT22;59686;51.716;7.016;2024-03-02T08:50:34;10.50;94.40
71837;DHT22;59686;51.716;7.016;2024-03-02T08:53:00;10.40;94.40
71837;DHT22;59686;51.716;7.016;2024-03-02T08:55:25;10.50;94.50
71837;DHT22;59686;51.716;7.016;2024-03-02T08:57:51;10.40;94.50
71837;DHT22;59686;51.716;7.016;2024-03-02T09:00:17;10.50;94.50
71837;DHT22;59686;51.716;7.016;2024-03-02T09:02:46;10.50;94.60
71837;DHT22;59686;51.716;7.016;2024-03-02T09:05:11;10.60;94.50
71837;DHT22;59686;51.716;7.016;2024-03-02T09:07:37;10.70;94.70
71837;DHT22;59686;51.716;7.016;2024-03-02T09:10:07;10.70;94.80
71837;DHT22;59686;51.716;7.016;2024-03-02T09:12:33;10.70;94.90
71837;DHT22;59686;51.716;7.016;2024-03-02T09:15:03;10.70;95.10
71837;DHT22;59686;51.716;7.016;2024-03-02T09:17:29;10.70;95.20
71837;DHT22;59686;51.716;7.016;2024-03-02T09:19:55;10.70;95.20
71837;DHT22;59686;51.716;7.016;2024-03-02T09:22:21;10.70;95.30
71837;DHT22;59686;51.716;7.016;2024-03-02T09:24:46;10.70;95.30
71837;DHT22;59686;51.716;7.016;2024-03-02T09:27:12;10.70;95.20
71837;DHT22;59686;51.716;7.016;2024-03-02T09:29:38;10.70;95.30
71837;DHT22;59686;51.716;7.016;2024-03-02T09:32:05;10.70;95.40
71837;DHT22;59686;51.716;7.016;2024-03-02T09:34:31;10.70;95.30
71837;DHT22;59686;51.716;7.016;2024-03-02T09:36:57;10.70;95.30
71837;DHT22;59686;51.716;7.016;2024-03-02T09:39:23;10.80;95.40
71837;DHT22;59686;51.716;7.016;2024-03-02T09:41:50;10.70;95.30
71837;DHT22;59686;51.716;7.016;2024-03-02T09:44:16;10.70;95.40
71837;DHT22;59686;51.716;7.016;2024-03-02T09:46:42;10.70;95.40
71837;DHT22;59686;51.716;7.016;2024-03-02T09:49:10;10.80;95.50
71837;DHT22;59686;51.716;7.016;2024-03-02T09:51:37;10.80;95.50
71837;DHT22;59686;51.716;7.016;2024-03-02T09:54:03;10.80;95.40
71837;DHT22;59686;51.716;7.016;2024-03-02T09:56:28;10.80;95.40
71837;DHT22;59686;51.716;7.016;2024-03-02T09:58:54;10.80;95.40
71837;DHT22;59686;51.716;7.016;2024-03-02T10:01:20;10.80;95.40
71837;DHT22;59686;51.716;7.016;2024-03-02T10:03:45;10.80;95.30
71837;DHT22;59686;51.716;7.016;2024-03-02T10:06:22;10.70;95.30
71837;DHT22;59686;51.716;7.016;2024-03-02T10:08:47;10.80;95.40
71837;DHT22;59686;51.716;7.016;2024-03-02T10:11:30;10.90;95.40
71837;DHT22;59686;51.716;7.016;2024-03-02T10:14:13;10.80;95.40
71837;DHT22;59686;51.716;7.016;2024-03-02T10:16:40;10.80;95.30
71837;DHT22;59686;51.716;7.016;2024-03-02T10:19:23;10.80;95.40
71837;DHT22;59686;51.716;7.016;2024-03-02T10:21:54;10.80;95.40
71837;DHT22;59686;51.716;7.016;2024-03-02T10:24:21;10.90;95.50
71837;DHT22;59686;51.716;7.016;2024-03-02T10:26:46;10.90;95.40
71837;DHT22;59686;51.716;7.016;2024-03-02T10:29:12;10.90;95.40
71837;DHT22;59686;51.716;7.016;2024-03-02T10:31:43;10.90;95.40
71837;DHT22;59686;51.716;7.016;2024-03-02T10:34:10;10.90;95.40
71837;DHT22;59686;51.716;7.016;2024-03-02T10:36:36;11.00;95.30
71837;DHT22;59686;51.716;7.016;2024-03-02T10:39:07;10.90;95.20
71837;DHT22;59686;51.716;7.016;2024-03-02T10:41:37;10.90;95.10
71837;DHT22;59686;51.716;7.016;2024-03-02T10:44:07;10.90;95.10
71837;DHT22;59686;51.716;7.016;2024-03-02T10:46:36;10.90;95.10
71837;DHT22;59686;51.716;7.016;2024-03-02T10:49:03;11.00;94.60
71837;DHT22;59686;51.716;7.016;2024-03-02T10:51:33;11.10;93.50
71837;DHT22;59686;51.716;7.016;2024-03-02T10:54:02;11.20;92.90
71837;DHT22;59686;51.716;7.016;2024-03-02T10:56:39;11.30;92.80
71837;DHT22;59686;51.716;7.016;2024-03-02T11:01:58;11.40;92.60
71837;DHT22;59686;51.716;7.016;2024-03-02T11:04:28;11.50;92.50
71837;DHT22;59686;51.716;7.016;2024-03-02T11:07:14;11.60;92.40
71837;DHT22;59686;51.716;7.016;2024-03-02T11:09:47;11.60;92.40
71837;DHT22;59686;51.716;7.016;2024-03-02T11:12:31;11.60;92.30
71837;DHT22;59686;51.716;7.016;2024-03-02T11:15:00;11.80;92.60
71837;DHT22;59686;51.716;7.016;2024-03-02T11:17:26;11.80;91.70
71837;DHT22;59686;51.716;7.016;2024-03-02T11:19:53;11.90;91.60
71837;DHT22;59686;51.716;7.016;2024-03-02T11:22:19;11.70;91.70
71837;DHT22;59686;51.716;7.016;2024-03-02T11:24:49;11.90;91.40
71837;DHT22;59686;51.716;7.016;2024-03-02T11:33:04;12.10;89.00
71837;DHT22;59686;51.716;7.016;2024-03-02T11:35:37;12.20;89.30
71837;DHT22;59686;51.716;7.016;2024-03-02T11:38:03;12.10;90.40
71837;DHT22;59686;51.716;7.016;2024-03-02T11:40:29;12.10;90.80
71837;DHT22;59686;51.716;7.016;2024-03-02T11:42:56;12.10;90.80
71837;DHT22;59686;51.716;7.016;2024-03-02T11:45:26;12.20;91.00
71837;DHT22;59686;51.716;7.016;2024-03-02T11:47:59;12.00;91.10
71837;DHT22;59686;51.716;7.016;2024-03-02T11:50:35;12.10;91.10
71837;DHT22;59686;51.716;7.016;2024-03-02T11:53:06;12.10;91.00
71837;DHT22;59686;51.716;7.016;2024-03-02T11:55:35;12.10;91.20
71837;DHT22;59686;51.716;7.016;2024-03-02T11:58:03;12.20;90.70
71837;DHT22;59686;51.716;7.016;2024-03-02T12:00:29;12.20;90.50
71837;DHT22;59686;51.716;7.016;2024-03-02T12:03:05;12.30;90.60
71837;DHT22;59686;51.716;7.016;2024-03-02T12:05:32;12.20;90.80
71837;DHT22;59686;51.716;7.016;2024-03-02T12:07:59;12.20;90.70
71837;DHT22;59686;51.716;7.016;2024-03-02T12:10:26;12.30;90.20
71837;DHT22;59686;51.716;7.016;2024-03-02T12:13:02;12.30;90.40
71837;DHT22;59686;51.716;7.016;2024-03-02T12:15:33;12.30;90.40
71837;DHT22;59686;51.716;7.016;2024-03-02T12:18:00;12.40;90.20
71837;DHT22;59686;51.716;7.016;2024-03-02T12:20:28;12.40;90.10
71837;DHT22;59686;51.716;7.016;2024-03-02T12:22:56;12.40;90.00
71837;DHT22;59686;51.716;7.016;2024-03-02T12:25:23;12.60;90.80
71837;DHT22;59686;51.716;7.016;2024-03-02T12:27:51;12.50;91.90
71837;DHT22;59686;51.716;7.016;2024-03-02T12:30:17;12.60;91.00
71837;DHT22;59686;51.716;7.016;2024-03-02T12:32:44;12.60;90.10
71837;DHT22;59686;51.716;7.016;2024-03-02T12:35:13;12.60;88.50
71837;DHT22;59686;51.716;7.016;2024-03-02T12:37:45;12.60;90.30
71837;DHT22;59686;51.716;7.016;2024-03-02T12:40:12;12.70;89.70
71837;DHT22;59686;51.716;7.016;2024-03-02T12:42:39;12.60;90.10
71837;DHT22;59686;51.716;7.016;2024-03-02T12:45:06;12.70;90.70
71837;DHT22;59686;51.716;7.016;2024-03-02T12:47:33;12.70;89.90
71837;DHT22;59686;51.716;7.016;2024-03-02T12:49:59;12.80;89.00
71837;DHT22;59686;51.716;7.016;2024-03-02T12:52:24;13.00;87.60
71837;DHT22;59686;51.716;7.016;2024-03-02T12:54:50;13.00;85.20
71837;DHT22;59686;51.716;7.016;2024-03-02T12:57:20;13.30;84.50
71837;DHT22;59686;51.716;7.016;2024-03-02T12:59:47;13.10;81.60
71837;DHT22;59686;51.716;7.016;2024-03-02T13:02:19;13.20;81.50
71837;DHT22;59686;51.716;7.016;2024-03-02T13:04:52;13.20;80.80
71837;DHT22;59686;51.716;7.016;2024-03-02T13:07:20;13.20;80.80
71837;DHT22;59686;51.716;7.016;2024-03-02T13:09:46;13.20;82.10
71837;DHT22;59686;51.716;7.016;2024-03-02T13:12:15;13.20;83.30
71837;DHT22;59686;51.716;7.016;2024-03-02T13:14:41;13.20;82.10
71837;DHT22;59686;51.716;7.016;2024-03-02T13:17:08;13.30;83.00
71837;DHT22;59686;51.716;7.016;2024-03-02T13:19:34;13.20;83.30
71837;DHT22;59686;51.716;7.016;2024-03-02T13:22:00;13.20;82.90
71837;DHT22;59686;51.716;7.016;2024-03-02T13:24:29;13.30;83.30
71837;DHT22;59686;51.716;7.016;2024-03-02T13:26:55;13.30;83.20
71837;DHT22;59686;51.716;7.016;2024-03-02T13:29:23;13.30;84.30
71837;DHT22;59686;51.716;7.016;2024-03-02T13:31:50;13.10;85.20
71837;DHT22;59686;51.716;7.016;2024-03-02T13:34:15;13.10;85.60
71837;DHT22;59686;51.716;7.016;2024-03-02T13:36:41;13.00;85.80
71837;DHT22;59686;51.716;7.016;2024-03-02T13:39:07;13.00;86.10
71837;DHT22;59686;51.716;7.016;2024-03-02T13:41:35;13.00;86.60
71837;DHT22;59686;51.716;7.016;2024-03-02T13:44:01;12.90;86.30
71837;DHT22;59686;51.716;7.016;2024-03-02T13:46:27;12.90;86.20
71837;DHT22;59686;51.716;7.016;2024-03-02T13:48:54;12.80;85.80
71837;DHT22;59686;51.716;7.016;2024-03-02T13:51:20;12.90;85.80
71837;DHT22;59686;51.716;7.016;2024-03-02T13:53:45;13.00;86.10
71837;DHT22;59686;51.716;7.016;2024-03-02T13:56:11;12.90;86.70
71837;DHT22;59686;51.716;7.016;2024-03-02T13:58:37;12.90;86.50
71837;DHT22;59686;51.716;7.016;2024-03-02T14:01:04;12.90;86.70
71837;DHT22;59686;51.716;7.016;2024-03-02T14:03:30;12.80;86.70
71837;DHT22;59686;51.716;7.016;2024-03-02T14:05:56;12.80;86.90
71837;DHT22;59686;51.716;7.016;2024-03-02T14:08:22;12.90;87.20
71837;DHT22;59686;51.716;7.016;2024-03-02T14:10:48;12.80;87.20
71837;DHT22;59686;51.716;7.016;2024-03-02T14:13:14;12.90;87.80
71837;DHT22;59686;51.716;7.016;2024-03-02T14:15:41;12.80;88.00
71837;DHT22;59686;51.716;7.016;2024-03-02T14:18:07;12.80;88.40
71837;DHT22;59686;51.716;7.016;2024-03-02T14:20:35;12.80;88.10
71837;DHT22;59686;51.716;7.016;2024-03-02T14:23:01;12.80;88.30
71837;DHT22;59686;51.716;7.016;2024-03-02T14:25:28;13.00;88.60
71837;DHT22;59686;51.716;7.016;2024-03-02T14:27:57;12.90;88.40
71837;DHT22;59686;51.716;7.016;2024-03-02T14:30:23;12.90;88.60
71837;DHT22;59686;51.716;7.016;2024-03-02T14:32:49;12.90;88.60
71837;DHT22;59686;51.716;7.016;2024-03-02T14:35:16;12.90;89.00
71837;DHT22;59686;51.716;7.016;2024-03-02T14:37:42;12.90;89.30
71837;DHT22;59686;51.716;7.016;2024-03-02T14:40:08;12.90;89.20
71837;DHT22;59686;51.716;7.016;2024-03-02T14:42:35;12.90;89.10
71837;DHT22;59686;51.716;7.016;2024-03-02T14:45:01;12.80;88.80
71837;DHT22;59686;51.716;7.016;2024-03-02T14:47:32;12.90;88.50
71837;DHT22;59686;51.716;7.016;2024-03-02T14:50:00;12.90;88.20
71837;DHT22;59686;51.716;7.016;2024-03-02T14:52:25;12.90;88.20
71837;DHT22;59686;51.716;7.016;2024-03-02T14:54:51;12.90;88.60
71837;DHT22;59686;51.716;7.016;2024-03-02T14:57:18;12.90;88.30
71837;DHT22;59686;51.716;7.016;2024-03-02T14:59:43;13.00;88.10
71837;DHT22;59686;51.716;7.016;2024-03-02T15:02:09;13.00;88.30
71837;DHT22;59686;51.716;7.016;2024-03-02T15:04:35;13.00;88.10
71837;DHT22;59686;51.716;7.016;2024-03-02T15:07:00;13.00;88.20
71837;DHT22;59686;51.716;7.016;2024-03-02T15:09:26;13.00;87.80
71837;DHT22;59686;51.716;7.016;2024-03-02T15:11:52;13.00;88.20
71837;DHT22;59686;51.716;7.016;2024-03-02T15:14:17;12.90;88.50
71837;DHT22;59686;51.716;7.016;2024-03-02T15:16:43;12.90;88.20
71837;DHT22;59686;51.716;7.016;2024-03-02T15:19:08;12.80;87.60
71837;DHT22;59686;51.716;7.016;2024-03-02T15:21:34;12.90;88.20
71837;DHT22;59686;51.716;7.016;2024-03-02T15:24:00;12.90;88.10
71837;DHT22;59686;51.716;7.016;2024-03-02T15:26:26;12.90;87.90
71837;DHT22;59686;51.716;7.016;2024-03-02T15:28:51;12.90;87.50
71837;DHT22;59686;51.716;7.016;2024-03-02T15:31:19;12.90;87.50
71837;DHT22;59686;51.716;7.016;2024-03-02T15:33:44;12.90;87.60
71837;DHT22;59686;51.716;7.016;2024-03-02T15:36:10;12.90;87.80
71837;DHT22;59686;51.716;7.016;2024-03-02T15:38:35;13.00;87.80